createdAt,value
2018-06-09T00:00:01.019Z,79.20
2018-06-09T00:03:05.223Z,79.50
2018-06-09T00:06:09.616Z,79.60
2018-06-09T00:09:13.780Z,79.60
2018-06-09T00:12:17.914Z,79.60
2018-06-09T00:15:22.941Z,79.50
2018-06-09T00:21:30.894Z,79.70
2018-06-09T00:24:35.395Z,80.10
2018-06-09T00:27:39.509Z,80.10
2018-06-09T00:30:43.868Z,80.20
2018-06-09T00:33:49.191Z,80.10
2018-06-09T00:36:53.547Z,79.70
2018-06-09T00:39:58.837Z,79.40
2018-06-09T00:43:03.225Z,79.50
2018-06-09T00:46:07.411Z,79.20
2018-06-09T00:49:11.772Z,79.20
2018-06-09T00:52:16.243Z,79.30
2018-06-09T00:55:20.714Z,79.40
2018-06-09T00:58:25.041Z,79.20
2018-06-09T01:01:29.334Z,79.20
2018-06-09T01:04:33.721Z,79.50
2018-06-09T01:07:37.782Z,79.80
2018-06-09T01:10:42.160Z,80.20
2018-06-09T01:13:46.053Z,80.40
2018-06-09T01:16:49.919Z,80.60
2018-06-09T01:19:53.828Z,80.90
2018-06-09T01:22:58.887Z,80.70
2018-06-09T01:26:03.171Z,81.30
2018-06-09T01:29:07.438Z,81.10
2018-06-09T01:32:11.758Z,81.40
2018-06-09T01:35:16.082Z,81.90
2018-06-09T01:38:20.391Z,81.70
2018-06-09T01:41:24.735Z,81.40
2018-06-09T01:44:29.067Z,81.70
2018-06-09T01:47:33.544Z,82.00
2018-06-09T01:50:37.955Z,82.30
2018-06-09T01:53:42.320Z,82.00
2018-06-09T01:56:46.728Z,81.50
2018-06-09T01:59:51.082Z,81.90
2018-06-09T02:02:55.328Z,82.30
2018-06-09T02:05:59.626Z,82.60
2018-06-09T02:09:04.999Z,82.60
2018-06-09T02:12:09.480Z,82.40
2018-06-09T02:15:13.842Z,81.90
2018-06-09T02:18:18.263Z,82.20
2018-06-09T02:21:22.759Z,82.30
2018-06-09T02:24:27.095Z,82.00
2018-06-09T02:27:31.931Z,81.90
2018-06-09T02:30:36.257Z,81.80
2018-06-09T02:33:40.553Z,82.00
2018-06-09T02:36:44.864Z,82.20
2018-06-09T02:39:49.194Z,82.50
2018-06-09T02:42:53.630Z,82.40
2018-06-09T02:45:57.858Z,82.30
2018-06-09T02:49:02.159Z,81.90
2018-06-09T02:52:06.518Z,82.60
2018-06-09T02:55:10.791Z,82.30
2018-06-09T02:58:15.288Z,82.50
2018-06-09T03:01:19.428Z,81.90
2018-06-09T03:04:23.811Z,81.80
2018-06-09T03:07:28.019Z,81.80
2018-06-09T03:10:32.234Z,81.30
2018-06-09T03:13:36.651Z,81.00
2018-06-09T03:16:40.788Z,81.00
2018-06-09T03:19:44.896Z,80.40
2018-06-09T03:22:49.140Z,80.50
2018-06-09T03:25:53.512Z,80.20
2018-06-09T03:28:57.969Z,80.10
2018-06-09T03:32:02.205Z,80.20
2018-06-09T03:35:06.659Z,80.40
2018-06-09T03:38:11.016Z,80.40
2018-06-09T03:41:15.361Z,80.40
2018-06-09T03:44:19.544Z,80.10
2018-06-09T03:47:24.021Z,79.70
2018-06-09T03:50:28.301Z,79.70
2018-06-09T03:53:32.473Z,79.50
2018-06-09T03:56:36.938Z,79.50
2018-06-09T03:59:41.239Z,79.80
2018-06-09T04:02:45.998Z,80.00
2018-06-09T04:05:50.387Z,79.50
2018-06-09T04:08:54.707Z,79.20
2018-06-09T04:11:58.986Z,79.10
2018-06-09T04:15:03.306Z,78.60
2018-06-09T04:18:07.651Z,78.90
2018-06-09T04:21:11.966Z,78.40
2018-06-09T04:24:16.332Z,78.30
2018-06-09T04:27:20.806Z,78.20
2018-06-09T04:30:25.130Z,77.80
2018-06-09T04:33:29.305Z,77.80
2018-06-09T04:36:33.987Z,77.50
2018-06-09T04:39:38.263Z,76.90
2018-06-09T04:42:42.814Z,76.80
2018-06-09T04:45:47.019Z,76.50
2018-06-09T04:48:51.358Z,76.50
2018-06-09T04:51:55.871Z,77.00
2018-06-09T04:55:00.204Z,77.20
2018-06-09T04:58:04.512Z,76.50
2018-06-09T05:01:08.991Z,75.90
2018-06-09T05:04:13.289Z,75.40
2018-06-09T05:07:17.927Z,75.00
2018-06-09T05:10:22.135Z,74.20
2018-06-09T05:13:26.498Z,74.10
2018-06-09T05:16:30.853Z,73.70
2018-06-09T05:19:35.280Z,73.10
2018-06-09T05:22:39.768Z,73.00
2018-06-09T05:25:44.140Z,73.30
2018-06-09T05:28:48.597Z,73.20
2018-06-09T05:31:52.883Z,72.80
2018-06-09T05:34:56.996Z,73.00
2018-06-09T05:38:01.334Z,73.10
2018-06-09T05:41:05.435Z,73.70
2018-06-09T05:44:09.765Z,73.50
2018-06-09T05:47:13.912Z,73.40
2018-06-09T05:50:18.229Z,73.40
2018-06-09T05:53:22.578Z,73.40
2018-06-09T05:56:26.900Z,73.60
2018-06-09T05:59:31.032Z,73.60
2018-06-09T06:02:35.220Z,73.00
2018-06-09T06:05:39.503Z,72.60
2018-06-09T06:08:43.794Z,72.90
2018-06-09T06:11:48.933Z,72.20
2018-06-09T06:14:53.113Z,72.00
2018-06-09T06:17:57.302Z,71.40
2018-06-09T06:21:01.460Z,70.10
2018-06-09T06:24:05.964Z,69.50
2018-06-09T06:27:10.275Z,69.60
2018-06-09T06:30:14.735Z,70.00
2018-06-09T06:33:18.908Z,70.20
2018-06-09T06:36:23.031Z,69.50
2018-06-09T06:39:27.150Z,69.40
2018-06-09T06:42:31.397Z,68.90
2018-06-09T06:45:35.826Z,68.40
2018-06-09T06:48:39.901Z,67.50
2018-06-09T06:51:44.127Z,67.30
2018-06-09T06:54:48.551Z,67.50
2018-06-09T06:57:52.619Z,68.60
2018-06-09T07:00:56.755Z,68.60
2018-06-09T07:04:01.040Z,68.70
2018-06-09T07:07:05.475Z,69.20
2018-06-09T07:10:09.772Z,69.10
2018-06-09T07:13:14.109Z,68.90
2018-06-09T07:16:18.314Z,68.70
2018-06-09T07:19:22.629Z,68.60
2018-06-09T07:22:27.236Z,68.00
2018-06-09T07:25:31.477Z,68.50
2018-06-09T07:28:35.832Z,67.70
2018-06-09T07:31:40.296Z,67.10
2018-06-09T07:34:45.049Z,63.80
2018-06-09T07:37:49.424Z,59.80
2018-06-09T07:40:53.671Z,57.50
2018-06-09T07:43:57.985Z,55.60
2018-06-09T07:47:02.342Z,55.10
2018-06-09T07:50:06.805Z,54.40
2018-06-09T07:53:11.107Z,52.70
2018-06-09T07:56:15.418Z,52.30
2018-06-09T07:59:19.812Z,51.40
2018-06-09T08:02:24.077Z,51.50
2018-06-09T08:05:28.302Z,51.60
2018-06-09T08:08:32.583Z,49.30
2018-06-09T08:11:36.950Z,49.60
2018-06-09T08:14:41.227Z,50.70
2018-06-09T08:17:45.541Z,50.00
2018-06-09T08:20:49.996Z,49.70
2018-06-09T08:23:54.362Z,50.20
2018-06-09T08:26:58.544Z,50.60
2018-06-09T08:30:02.857Z,51.50
2018-06-09T08:33:07.211Z,52.10
2018-06-09T08:36:11.547Z,51.90
2018-06-09T08:39:15.829Z,52.00
2018-06-09T08:42:20.192Z,50.80
2018-06-09T08:45:24.664Z,49.70
2018-06-09T08:48:29.119Z,49.50
2018-06-09T08:51:33.455Z,50.20
2018-06-09T08:54:38.062Z,49.90
2018-06-09T08:57:42.483Z,49.60
2018-06-09T09:00:46.852Z,48.80
2018-06-09T09:03:51.107Z,47.80
2018-06-09T09:06:55.470Z,47.60
2018-06-09T09:09:59.815Z,46.10
2018-06-09T09:13:04.370Z,44.50
2018-06-09T09:16:08.466Z,44.30
2018-06-09T09:19:12.614Z,44.10
2018-06-09T09:22:16.947Z,42.60
2018-06-09T09:25:21.299Z,42.40
2018-06-09T09:28:25.672Z,42.50
2018-06-09T09:31:29.883Z,42.90
2018-06-09T09:34:33.984Z,41.40
2018-06-09T09:37:38.132Z,40.90
2018-06-09T09:40:42.189Z,40.60
2018-06-09T09:43:46.298Z,39.90
2018-06-09T09:46:50.545Z,39.20
2018-06-09T09:49:54.720Z,39.40
2018-06-09T09:52:58.893Z,38.30
2018-06-09T09:56:03.087Z,37.80
2018-06-09T09:59:07.445Z,38.30
2018-06-09T10:02:11.536Z,38.20
2018-06-09T10:05:15.831Z,38.10
2018-06-09T10:08:20.084Z,39.00
2018-06-09T10:11:24.421Z,40.30
2018-06-09T10:14:28.719Z,41.70
2018-06-09T10:17:33.062Z,42.00
2018-06-09T10:20:37.361Z,42.10
2018-06-09T10:23:41.463Z,41.10
2018-06-09T10:26:45.709Z,41.30
2018-06-09T10:29:50.051Z,42.40
2018-06-09T10:32:54.352Z,45.60
2018-06-09T10:35:58.485Z,45.00
2018-06-09T10:39:02.772Z,44.80
2018-06-09T10:42:07.113Z,45.90
2018-06-09T10:45:11.391Z,46.20
2018-06-09T10:48:15.879Z,46.00
2018-06-09T10:51:20.230Z,46.20
2018-06-09T10:54:24.417Z,47.20
2018-06-09T10:57:28.742Z,47.20
2018-06-09T11:03:36.672Z,46.20
2018-06-09T11:06:40.822Z,44.50
2018-06-09T11:09:45.095Z,43.50
2018-06-09T11:12:49.446Z,44.10
2018-06-09T11:15:53.744Z,44.70
2018-06-09T11:18:58.020Z,46.70
2018-06-09T11:22:02.483Z,48.60
2018-06-09T11:25:06.675Z,50.40
2018-06-09T11:28:11.095Z,51.10
2018-06-09T11:31:15.589Z,51.60
2018-06-09T11:34:19.850Z,51.10
2018-06-09T11:37:24.081Z,51.10
2018-06-09T11:40:28.722Z,50.40
2018-06-09T11:43:32.975Z,51.40
2018-06-09T11:46:37.550Z,51.40
2018-06-09T11:49:42.226Z,50.70
2018-06-09T11:52:46.622Z,51.00
2018-06-09T11:55:51.071Z,49.80
2018-06-09T11:58:55.269Z,48.70
2018-06-09T12:01:59.420Z,48.40
2018-06-09T12:05:03.625Z,48.10
2018-06-09T12:08:07.982Z,44.30
2018-06-09T12:11:12.083Z,44.10
2018-06-09T12:14:16.517Z,44.70
2018-06-09T12:17:20.842Z,45.20
2018-06-09T12:20:25.013Z,45.60
2018-06-09T12:23:29.324Z,45.10
2018-06-09T12:26:33.263Z,45.80
2018-06-09T12:29:37.138Z,45.90
2018-06-09T12:32:41.053Z,46.40
2018-06-09T12:35:45.032Z,46.30
2018-06-09T12:38:48.940Z,46.30
2018-06-09T12:41:53.359Z,47.10
2018-06-09T12:44:57.795Z,46.90
2018-06-09T12:48:02.910Z,46.50
2018-06-09T12:51:07.255Z,45.70
2018-06-09T12:54:11.567Z,44.40
2018-06-09T12:57:15.938Z,45.20
2018-06-09T13:00:20.522Z,46.10
2018-06-09T13:03:24.831Z,45.30
2018-06-09T13:06:29.123Z,44.80
2018-06-09T13:09:33.476Z,44.70
2018-06-09T13:12:38.002Z,43.00
2018-06-09T13:15:42.347Z,43.00
2018-06-09T13:18:46.628Z,43.60
2018-06-09T13:21:51.106Z,44.80
2018-06-09T13:24:55.354Z,45.20
2018-06-09T13:27:59.736Z,45.40
2018-06-09T13:31:04.018Z,46.00
2018-06-09T13:34:08.357Z,46.90
2018-06-09T13:37:12.656Z,46.80
2018-06-09T13:40:17.156Z,44.90
2018-06-09T13:43:21.538Z,44.70
2018-06-09T13:46:25.874Z,43.50
2018-06-09T13:49:30.287Z,44.10
2018-06-09T13:52:34.677Z,43.90
2018-06-09T13:55:39.053Z,43.60
2018-06-09T13:58:43.717Z,43.80
2018-06-09T14:01:48.071Z,42.70
2018-06-09T14:04:52.459Z,42.70
2018-06-09T14:07:57.042Z,42.70
2018-06-09T14:11:01.334Z,42.80
2018-06-09T14:14:05.624Z,44.60
2018-06-09T14:17:10.096Z,44.30
2018-06-09T14:20:14.570Z,44.10
2018-06-09T14:23:18.926Z,44.30
2018-06-09T14:26:23.271Z,44.00
2018-06-09T14:29:27.640Z,45.20
2018-06-09T14:32:31.977Z,45.30
2018-06-09T14:35:36.364Z,45.20
2018-06-09T14:38:40.703Z,45.00
2018-06-09T14:41:45.208Z,45.60
2018-06-09T14:44:49.448Z,45.90
2018-06-09T14:47:53.888Z,47.60
2018-06-09T14:50:58.384Z,49.40
2018-06-09T14:54:02.616Z,47.80
2018-06-09T14:57:07.035Z,46.40
2018-06-09T15:00:11.215Z,46.10
2018-06-09T15:03:15.677Z,46.60
2018-06-09T15:06:19.808Z,47.60
2018-06-09T15:09:24.331Z,47.40
2018-06-09T15:12:28.479Z,46.50
2018-06-09T15:15:32.921Z,46.00
2018-06-09T15:18:37.070Z,46.20
2018-06-09T15:21:41.167Z,46.10
2018-06-09T15:24:45.485Z,46.20
2018-06-09T15:27:49.698Z,46.50
2018-06-09T15:30:54.059Z,46.50
2018-06-09T15:33:58.966Z,46.40
2018-06-09T15:37:03.751Z,46.10
2018-06-09T15:40:07.960Z,46.50
2018-06-09T15:43:12.271Z,46.50
2018-06-09T15:46:16.867Z,46.20
2018-06-09T15:49:21.315Z,46.40
2018-06-09T15:52:25.610Z,46.80
2018-06-09T15:55:29.717Z,46.00
2018-06-09T15:58:33.918Z,45.40
2018-06-09T16:01:38.403Z,45.70
2018-06-09T16:04:42.354Z,45.80
2018-06-09T16:07:46.247Z,46.90
2018-06-09T16:10:50.338Z,49.70
2018-06-09T16:13:54.676Z,51.00
2018-06-09T16:16:58.983Z,52.10
2018-06-09T16:20:03.138Z,51.80
2018-06-09T16:23:07.252Z,51.80
2018-06-09T16:26:11.626Z,51.60
2018-06-09T16:29:16.026Z,51.90
2018-06-09T16:32:20.548Z,52.70
2018-06-09T16:35:24.771Z,52.90
2018-06-09T16:38:29.150Z,52.90
2018-06-09T16:41:33.483Z,53.00
2018-06-09T16:44:37.808Z,52.90
2018-06-09T16:47:42.167Z,52.80
2018-06-09T16:50:46.442Z,52.90
2018-06-09T16:53:50.685Z,53.10
2018-06-09T16:56:55.612Z,53.40
2018-06-09T16:59:59.882Z,53.70
2018-06-09T17:03:04.446Z,53.90
2018-06-09T17:06:08.743Z,54.30
2018-06-09T17:09:12.883Z,54.80
2018-06-09T17:12:17.159Z,54.70
2018-06-09T17:15:21.497Z,54.60
2018-06-09T17:18:25.855Z,54.40
2018-06-09T17:21:30.445Z,54.80
2018-06-09T17:24:34.995Z,55.10
2018-06-09T17:27:39.347Z,55.60
2018-06-09T17:30:43.774Z,56.00
2018-06-09T17:33:48.123Z,56.00
2018-06-09T17:36:52.520Z,56.20
2018-06-09T17:39:56.805Z,56.30
2018-06-09T17:43:01.332Z,56.20
2018-06-09T17:46:05.558Z,56.10
2018-06-09T17:49:09.813Z,56.10
2018-06-09T17:52:14.151Z,56.10
2018-06-09T17:55:18.462Z,56.20
2018-06-09T17:58:22.860Z,56.10
2018-06-09T18:01:27.135Z,56.00
2018-06-09T18:04:31.311Z,56.00
2018-06-09T18:07:35.688Z,56.00
2018-06-09T18:10:40.146Z,56.10
2018-06-09T18:13:44.522Z,56.70
2018-06-09T18:16:49.387Z,56.40
2018-06-09T18:19:53.604Z,56.70
2018-06-09T18:22:57.984Z,56.80
2018-06-09T18:26:02.268Z,56.90
2018-06-09T18:29:06.617Z,56.80
2018-06-09T18:32:10.934Z,57.00
2018-06-09T18:35:15.194Z,57.30
2018-06-09T18:38:19.549Z,57.50
2018-06-09T18:41:23.816Z,57.80
2018-06-09T18:44:28.326Z,58.10
2018-06-09T18:47:32.462Z,58.20
2018-06-09T18:50:37.000Z,58.30
2018-06-09T18:53:41.347Z,58.50
2018-06-09T18:56:45.756Z,58.50
2018-06-09T18:59:50.162Z,58.80
2018-06-09T19:03:02.647Z,58.90
2018-06-09T19:06:07.236Z,59.30
2018-06-09T19:09:11.746Z,59.30
2018-06-09T19:12:16.029Z,59.70
2018-06-09T19:15:20.112Z,59.70
2018-06-09T19:18:24.210Z,60.40
2018-06-09T19:21:28.617Z,61.20
2018-06-09T19:24:33.098Z,60.80
2018-06-09T19:27:37.420Z,60.60
2018-06-09T19:30:41.779Z,60.90
2018-06-09T19:33:46.117Z,61.20
2018-06-09T19:36:50.608Z,61.20
2018-06-09T19:39:54.919Z,61.20
2018-06-09T19:42:59.054Z,61.10
2018-06-09T19:46:03.266Z,61.40
2018-06-09T19:52:11.639Z,62.40
2018-06-09T19:55:16.003Z,62.50
2018-06-09T19:58:20.455Z,62.80
2018-06-09T20:01:24.739Z,62.90
2018-06-09T20:04:28.898Z,63.00
2018-06-09T20:07:33.088Z,63.10
2018-06-09T20:10:37.334Z,63.50
2018-06-09T20:13:41.626Z,63.60
2018-06-09T20:16:45.831Z,63.40
2018-06-09T20:19:50.158Z,63.20
2018-06-09T20:22:54.534Z,64.20
2018-06-09T20:25:58.867Z,63.70
2018-06-09T20:29:03.534Z,63.60
2018-06-09T20:32:07.826Z,63.70
2018-06-09T20:35:12.508Z,64.00
2018-06-09T20:38:16.696Z,63.80
2018-06-09T20:41:21.274Z,63.70
2018-06-09T20:44:25.624Z,63.90
2018-06-09T20:47:29.916Z,63.90
2018-06-09T20:50:34.301Z,64.10
2018-06-09T20:53:38.623Z,64.30
2018-06-09T20:56:43.025Z,64.40
2018-06-09T20:59:47.520Z,64.30
2018-06-09T21:02:51.922Z,64.60
2018-06-09T21:05:56.445Z,64.80
2018-06-09T21:09:00.647Z,65.20
2018-06-09T21:12:04.881Z,65.50
2018-06-09T21:15:08.861Z,65.90
2018-06-09T21:18:12.809Z,66.10
2018-06-09T21:21:16.676Z,66.50
2018-06-09T21:24:20.691Z,66.40
2018-06-09T21:27:30.151Z,66.30
2018-06-09T21:30:39.703Z,66.20
2018-06-09T21:34:00.166Z,65.90
2018-06-09T21:40:19.213Z,66.20
2018-06-09T21:43:25.534Z,66.30
2018-06-09T21:46:39.078Z,66.30
2018-06-09T21:49:43.574Z,66.50
2018-06-09T21:52:47.461Z,66.50
2018-06-09T21:55:51.651Z,66.70
2018-06-09T21:58:56.490Z,66.70
2018-06-09T22:02:02.144Z,66.60
2018-06-09T22:05:06.595Z,66.80
2018-06-09T22:08:10.826Z,67.20
2018-06-09T22:11:15.127Z,67.40
2018-06-09T22:14:19.410Z,67.50
2018-06-09T22:17:23.857Z,67.70
2018-06-09T22:20:28.246Z,67.60
2018-06-09T22:23:32.725Z,67.70
2018-06-09T22:26:37.026Z,67.70
2018-06-09T22:29:41.786Z,67.90
2018-06-09T22:32:45.970Z,68.00
2018-06-09T22:35:50.481Z,68.10
2018-06-09T22:38:54.786Z,68.30
2018-06-09T22:41:59.453Z,68.30
2018-06-09T22:45:03.829Z,68.20
2018-06-09T22:48:08.140Z,68.50
2018-06-09T22:51:12.435Z,68.60
2018-06-09T22:54:16.585Z,68.90
2018-06-09T22:57:20.877Z,69.10
2018-06-09T23:00:35.614Z,69.20
2018-06-09T23:03:39.977Z,69.50
2018-06-09T23:06:44.163Z,69.70
2018-06-09T23:09:48.474Z,70.00
2018-06-09T23:12:52.810Z,70.20
2018-06-09T23:15:57.134Z,70.30
2018-06-09T23:19:01.617Z,70.30
2018-06-09T23:22:06.129Z,70.40
2018-06-09T23:25:10.307Z,70.60
2018-06-09T23:28:14.756Z,71.60
2018-06-09T23:31:18.934Z,71.00
2018-06-09T23:34:23.382Z,70.90
2018-06-09T23:37:27.691Z,71.00
2018-06-09T23:40:32.246Z,71.10
2018-06-09T23:43:36.439Z,71.10
2018-06-09T23:46:40.834Z,71.30
2018-06-09T23:52:48.943Z,71.40
2018-06-09T23:55:53.334Z,71.50
2018-06-09T23:58:57.622Z,71.60
